createdAt,value
2023-11-24T00:01:12.531Z,11.33
2023-11-24T00:03:45.109Z,11.29
2023-11-24T00:06:16.315Z,11.27
2023-11-24T00:08:49.257Z,11.21
2023-11-24T00:11:20.745Z,11.15
2023-11-24T00:13:50.810Z,11.09
2023-11-24T00:16:22.806Z,11.10
2023-11-24T00:18:52.719Z,11.06
2023-11-24T00:21:22.811Z,11.02
2023-11-24T00:23:55.602Z,11.06
2023-11-24T00:26:27.689Z,10.94
2023-11-24T00:28:57.913Z,10.87
2023-11-24T00:31:28.960Z,10.91
2023-11-24T00:34:00.062Z,10.86
2023-11-24T00:36:31.265Z,10.85
2023-11-24T00:39:05.596Z,10.69
2023-11-24T00:41:35.494Z,10.65
2023-11-24T00:44:05.535Z,10.64
2023-11-24T00:46:36.599Z,10.65
2023-11-24T00:49:06.963Z,10.61
2023-11-24T00:51:36.850Z,10.53
2023-11-24T00:54:10.906Z,10.52
2023-11-24T00:56:40.784Z,10.47
2023-11-24T00:59:10.655Z,10.48
2023-11-24T01:01:40.859Z,10.45
2023-11-24T01:04:12.171Z,10.45
2023-11-24T01:06:42.408Z,10.34
2023-11-24T01:09:14.919Z,10.34
2023-11-24T01:11:44.766Z,10.32
2023-11-24T01:14:14.590Z,10.30
2023-11-24T01:16:44.490Z,10.31
2023-11-24T01:19:15.867Z,10.32
2023-11-24T01:21:45.870Z,10.29
2023-11-24T01:24:18.540Z,10.28
2023-11-24T01:26:48.876Z,10.26
2023-11-24T01:29:18.767Z,10.22
2023-11-24T01:31:48.787Z,10.20
2023-11-24T01:34:18.743Z,10.22
2023-11-24T01:36:48.856Z,10.22
2023-11-24T01:39:22.555Z,10.18
2023-11-24T01:41:52.574Z,10.14
2023-11-24T01:44:24.174Z,10.10
2023-11-24T01:46:54.090Z,10.10
2023-11-24T01:49:24.519Z,10.08
2023-11-24T01:51:56.439Z,10.04
2023-11-24T01:54:35.054Z,9.99
2023-11-24T01:57:06.592Z,9.99
2023-11-24T01:59:36.896Z,9.97
2023-11-24T02:02:07.993Z,9.96
2023-11-24T02:04:38.205Z,9.95
2023-11-24T02:07:08.249Z,9.91
2023-11-24T02:09:40.841Z,9.90
2023-11-24T02:12:11.430Z,9.88
2023-11-24T02:14:41.321Z,9.86
2023-11-24T02:17:11.161Z,9.82
2023-11-24T02:19:41.291Z,9.79
2023-11-24T02:22:11.371Z,9.74
2023-11-24T02:24:44.040Z,9.72
2023-11-24T02:27:14.850Z,9.70
2023-11-24T02:29:44.713Z,9.70
2023-11-24T02:32:15.173Z,9.70
2023-11-24T02:34:45.554Z,9.73
2023-11-24T02:37:15.824Z,9.74
2023-11-24T02:39:49.316Z,9.71
2023-11-24T02:42:19.364Z,9.68
2023-11-24T02:44:49.280Z,9.62
2023-11-24T02:47:19.204Z,9.57
2023-11-24T02:49:49.082Z,9.53
2023-11-24T02:52:18.923Z,9.50
2023-11-24T02:54:53.781Z,9.48
2023-11-24T02:57:24.475Z,9.45
2023-11-24T02:59:54.430Z,9.42
2023-11-24T03:02:24.516Z,9.39
2023-11-24T03:04:52.023Z,9.39
2023-11-24T03:07:21.934Z,9.35
2023-11-24T03:09:54.617Z,9.39
2023-11-24T03:12:24.607Z,9.37
2023-11-24T03:14:55.365Z,9.35
2023-11-24T03:17:25.186Z,9.36
2023-11-24T03:19:55.009Z,9.33
2023-11-24T03:22:25.908Z,9.30
2023-11-24T03:25:01.043Z,9.29
2023-11-24T03:27:30.938Z,9.27
2023-11-24T03:30:00.872Z,9.26
2023-11-24T03:32:31.563Z,9.24
2023-11-24T03:35:01.522Z,9.24
2023-11-24T03:37:31.464Z,9.22
2023-11-24T03:40:04.799Z,9.20
2023-11-24T03:42:34.713Z,9.19
2023-11-24T03:45:06.106Z,9.19
2023-11-24T03:47:36.593Z,9.17
2023-11-24T03:50:06.988Z,9.16
2023-11-24T03:52:37.204Z,9.16
2023-11-24T03:55:12.824Z,9.16
2023-11-24T03:57:45.604Z,9.21
2023-11-24T04:00:16.292Z,9.25
2023-11-24T04:02:47.759Z,9.22
2023-11-24T04:05:19.119Z,9.22
2023-11-24T04:07:49.594Z,9.20
2023-11-24T04:10:22.698Z,9.14
2023-11-24T04:12:52.662Z,9.12
2023-11-24T04:15:22.515Z,9.12
2023-11-24T04:17:52.482Z,9.09
2023-11-24T04:20:22.644Z,9.06
2023-11-24T04:22:52.551Z,9.07
2023-11-24T04:25:25.108Z,9.06
2023-11-24T04:27:55.039Z,9.07
2023-11-24T04:30:24.989Z,9.07
2023-11-24T04:32:55.062Z,9.03
2023-11-24T04:35:28.650Z,9.04
2023-11-24T04:37:58.549Z,9.05
2023-11-24T04:40:31.257Z,9.08
2023-11-24T04:43:01.176Z,9.06
2023-11-24T04:45:32.476Z,9.11
2023-11-24T04:48:04.274Z,9.10
2023-11-24T04:50:34.372Z,9.07
2023-11-24T04:53:04.277Z,9.05
2023-11-24T04:55:37.736Z,9.06
2023-11-24T04:58:07.664Z,9.06
2023-11-24T05:00:37.599Z,9.03
2023-11-24T05:03:07.531Z,9.06
2023-11-24T05:05:37.423Z,9.07
2023-11-24T05:08:07.827Z,9.05
2023-11-24T05:10:40.297Z,9.04
2023-11-24T05:13:10.694Z,9.02
2023-11-24T05:15:40.786Z,8.96
2023-11-24T05:18:10.774Z,8.95
2023-11-24T05:20:40.656Z,8.97
2023-11-24T05:23:10.692Z,8.99
2023-11-24T05:25:43.612Z,9.00
2023-11-24T05:28:14.183Z,8.95
2023-11-24T05:30:44.029Z,8.93
2023-11-24T05:33:13.899Z,8.95
2023-11-24T05:35:44.023Z,8.94
2023-11-24T05:38:13.908Z,8.90
2023-11-24T05:40:47.690Z,8.87
2023-11-24T05:43:17.602Z,8.85
2023-11-24T05:45:48.620Z,8.85
2023-11-24T05:48:18.611Z,8.87
2023-11-24T05:50:48.830Z,8.83
2023-11-24T05:53:18.725Z,8.77
2023-11-24T05:55:51.360Z,8.77
2023-11-24T05:58:23.079Z,8.76
2023-11-24T06:00:53.126Z,8.77
2023-11-24T06:03:23.162Z,8.82
2023-11-24T06:05:53.825Z,8.86
2023-11-24T06:08:23.755Z,8.80
2023-11-24T06:10:56.342Z,8.78
2023-11-24T06:13:26.236Z,8.76
2023-11-24T06:15:56.318Z,8.78
2023-11-24T06:18:27.258Z,8.73
2023-11-24T06:20:57.308Z,8.75
2023-11-24T06:23:27.204Z,8.70
2023-11-24T06:25:59.732Z,8.69
2023-11-24T06:28:30.556Z,8.65
2023-11-24T06:31:02.015Z,8.64
2023-11-24T06:33:32.151Z,8.63
2023-11-24T06:36:02.076Z,8.63
2023-11-24T06:38:31.878Z,8.61
2023-11-24T06:41:04.567Z,8.60
2023-11-24T06:43:37.276Z,8.66
2023-11-24T06:46:08.298Z,8.67
2023-11-24T06:48:39.637Z,8.68
2023-11-24T06:51:10.080Z,8.63
2023-11-24T06:53:39.938Z,8.55
2023-11-24T06:56:12.712Z,8.52
2023-11-24T06:58:43.258Z,8.46
2023-11-24T07:01:13.253Z,8.42
2023-11-24T07:03:43.252Z,8.38
2023-11-24T07:06:13.196Z,8.34
2023-11-24T07:08:43.147Z,8.29
2023-11-24T07:11:15.768Z,8.29
2023-11-24T07:13:45.671Z,8.30
2023-11-24T07:16:16.026Z,8.31
2023-11-24T07:18:46.106Z,8.32
2023-11-24T07:21:17.061Z,8.31
2023-11-24T07:23:46.972Z,8.29
2023-11-24T07:26:23.433Z,8.33
2023-11-24T07:28:54.012Z,8.37
2023-11-24T07:31:26.774Z,8.43
2023-11-24T07:33:56.696Z,8.45
2023-11-24T07:36:27.287Z,8.43
2023-11-24T07:38:57.363Z,8.42
2023-11-24T07:41:29.920Z,8.36
2023-11-24T07:43:59.915Z,8.34
2023-11-24T07:46:29.920Z,8.34
2023-11-24T07:48:59.934Z,8.34
2023-11-24T07:51:30.158Z,8.29
2023-11-24T07:54:00.198Z,8.30
2023-11-24T07:56:33.252Z,8.30
2023-11-24T07:59:03.515Z,8.29
2023-11-24T08:01:34.192Z,8.26
2023-11-24T08:04:04.389Z,8.21
2023-11-24T08:06:34.504Z,8.26
2023-11-24T08:09:09.324Z,8.26
2023-11-24T08:11:41.907Z,8.32
2023-11-24T08:14:11.758Z,8.32
2023-11-24T08:16:41.593Z,8.29
2023-11-24T08:19:12.336Z,8.29
2023-11-24T08:21:42.507Z,8.29
2023-11-24T08:24:12.861Z,8.29
2023-11-24T08:26:45.344Z,8.31
2023-11-24T08:29:17.141Z,8.31
2023-11-24T08:31:49.637Z,8.30
2023-11-24T08:34:20.068Z,8.27
2023-11-24T08:36:50.069Z,8.28
2023-11-24T08:39:20.454Z,8.24
2023-11-24T08:41:54.419Z,8.21
2023-11-24T08:44:26.031Z,8.25
2023-11-24T08:46:56.422Z,8.21
2023-11-24T08:49:26.297Z,8.24
2023-11-24T08:51:56.139Z,8.23
2023-11-24T08:54:26.057Z,8.24
2023-11-24T08:56:58.766Z,8.27
2023-11-24T08:59:28.694Z,8.25
2023-11-24T09:01:59.668Z,8.26
2023-11-24T09:04:32.057Z,8.26
2023-11-24T09:07:02.462Z,8.29
2023-11-24T09:09:34.667Z,8.31
2023-11-24T09:12:08.740Z,8.31
2023-11-24T09:14:40.145Z,8.35
2023-11-24T09:17:10.072Z,8.35
2023-11-24T09:19:39.934Z,8.36
2023-11-24T09:22:14.637Z,8.39
2023-11-24T09:24:46.648Z,8.34
2023-11-24T09:27:23.080Z,8.37
2023-11-24T09:29:53.214Z,8.38
2023-11-24T09:32:23.207Z,8.42
2023-11-24T09:34:53.216Z,8.50
2023-11-24T09:37:23.320Z,8.53
2023-11-24T09:39:55.621Z,8.53
2023-11-24T09:42:33.476Z,8.57
2023-11-24T09:45:09.757Z,8.55
2023-11-24T09:47:40.664Z,8.53
2023-11-24T09:50:14.076Z,8.53
2023-11-24T09:52:47.649Z,8.49
2023-11-24T09:55:20.234Z,8.50
2023-11-24T09:57:54.368Z,8.48
2023-11-24T10:00:24.770Z,8.47
2023-11-24T10:02:56.097Z,8.43
2023-11-24T10:05:27.733Z,8.48
2023-11-24T10:07:59.308Z,8.40
2023-11-24T10:10:30.387Z,8.45
2023-11-24T10:13:05.171Z,8.49
2023-11-24T10:15:35.968Z,8.47
2023-11-24T10:18:05.929Z,8.53
2023-11-24T10:20:37.221Z,8.59
2023-11-24T10:23:08.254Z,8.59
2023-11-24T10:25:38.892Z,8.61
2023-11-24T10:28:12.730Z,8.56
2023-11-24T10:30:43.903Z,8.60
2023-11-24T10:33:34.607Z,8.61
2023-11-24T10:36:07.050Z,8.62
2023-11-24T10:38:37.798Z,8.60
2023-11-24T10:41:09.211Z,8.60
2023-11-24T10:43:42.788Z,8.59
2023-11-24T10:46:17.782Z,8.63
2023-11-24T10:48:52.257Z,8.62
2023-11-24T10:51:29.217Z,8.59
2023-11-24T10:54:00.841Z,8.60
2023-11-24T10:56:35.178Z,8.60
2023-11-24T10:59:10.726Z,8.58
2023-11-24T11:01:40.853Z,8.63
2023-11-24T11:04:12.870Z,8.67
2023-11-24T11:06:51.840Z,8.64
2023-11-24T11:09:31.564Z,8.67
2023-11-24T11:12:38.464Z,8.59
2023-11-24T11:15:14.265Z,8.60
2023-11-24T11:17:44.216Z,8.68
2023-11-24T11:20:16.506Z,8.75
2023-11-24T11:22:48.503Z,8.76
2023-11-24T11:25:43.865Z,8.68
2023-11-24T11:28:47.983Z,8.75
2023-11-24T11:31:29.523Z,8.75
2023-11-24T11:34:13.728Z,8.72
2023-11-24T11:36:55.911Z,8.69
2023-11-24T11:39:29.119Z,8.67
2023-11-24T11:41:59.756Z,8.69
2023-11-24T11:44:35.508Z,8.64
2023-11-24T11:47:14.442Z,8.63
2023-11-24T11:49:44.908Z,8.65
2023-11-24T11:52:15.435Z,8.68
2023-11-24T11:54:46.846Z,8.61
2023-11-24T11:57:16.722Z,8.62
2023-11-24T11:59:48.366Z,8.69
2023-11-24T12:02:22.763Z,8.79
2023-11-24T12:04:53.721Z,8.82
2023-11-24T12:07:24.482Z,8.83
2023-11-24T12:09:55.135Z,8.82
2023-11-24T12:12:25.545Z,8.67
2023-11-24T12:14:56.119Z,8.70
2023-11-24T12:17:29.869Z,8.68
2023-11-24T12:20:00.394Z,8.68
2023-11-24T12:22:32.108Z,8.66
2023-11-24T12:25:03.537Z,8.77
2023-11-24T12:27:35.171Z,8.80
2023-11-24T12:30:12.312Z,8.87
2023-11-24T12:32:46.236Z,8.94
2023-11-24T12:35:16.923Z,8.98
2023-11-24T12:37:47.937Z,9.00
2023-11-24T12:40:23.560Z,8.99
2023-11-24T12:42:55.060Z,8.94
2023-11-24T12:45:26.990Z,8.89
2023-11-24T12:48:07.075Z,8.81
2023-11-24T12:50:37.139Z,8.79
2023-11-24T12:53:07.475Z,8.77
2023-11-24T12:55:37.862Z,8.80
2023-11-24T12:58:07.770Z,8.82
2023-11-24T13:00:38.213Z,8.85
2023-11-24T13:03:11.462Z,8.85
2023-11-24T13:05:41.506Z,8.87
2023-11-24T13:08:11.397Z,8.88
2023-11-24T13:10:42.115Z,8.83
2023-11-24T13:13:12.387Z,8.86
2023-11-24T13:15:43.021Z,8.90
2023-11-24T13:18:15.620Z,8.93
2023-11-24T13:20:46.023Z,8.96
2023-11-24T13:23:16.338Z,9.00
2023-11-24T13:25:46.253Z,9.00
2023-11-24T13:28:19.273Z,8.97
2023-11-24T13:30:51.809Z,8.80
2023-11-24T13:33:24.298Z,8.75
2023-11-24T13:35:54.674Z,8.71
2023-11-24T13:38:24.701Z,8.71
2023-11-24T13:40:56.006Z,8.57
2023-11-24T13:43:26.087Z,8.54
2023-11-24T13:45:56.147Z,8.50
2023-11-24T13:48:30.431Z,8.47
2023-11-24T13:51:04.682Z,8.40
2023-11-24T13:53:37.354Z,8.31
2023-11-24T13:56:07.593Z,8.32
2023-11-24T13:58:37.619Z,8.32
2023-11-24T14:01:08.048Z,8.27
2023-11-24T14:03:41.654Z,8.22
2023-11-24T14:06:12.061Z,8.23
2023-11-24T14:08:42.229Z,8.20
2023-11-24T14:11:12.789Z,8.19
2023-11-24T14:13:42.806Z,8.10
2023-11-24T14:16:13.502Z,8.05
2023-11-24T14:18:47.551Z,7.99
2023-11-24T14:21:20.289Z,7.92
2023-11-24T14:23:50.175Z,7.81
2023-11-24T14:26:20.099Z,7.58
2023-11-24T14:28:50.087Z,7.50
2023-11-24T14:31:20.077Z,7.43
2023-11-24T14:33:52.890Z,7.34
2023-11-24T14:36:22.741Z,7.27
2023-11-24T14:38:54.076Z,7.19
2023-11-24T14:41:23.981Z,7.30
2023-11-24T14:43:55.185Z,7.34
2023-11-24T14:46:30.447Z,7.46
2023-11-24T14:49:05.201Z,7.47
2023-11-24T14:51:37.766Z,7.49
2023-11-24T14:54:07.923Z,7.50
2023-11-24T14:56:37.847Z,7.52
2023-11-24T14:59:10.171Z,7.48
2023-11-24T15:01:40.523Z,7.50
2023-11-24T15:04:19.174Z,7.49
2023-11-24T15:06:53.091Z,7.45
2023-11-24T15:09:26.169Z,7.44
2023-11-24T15:11:56.559Z,7.36
2023-11-24T15:14:38.114Z,7.33
2023-11-24T15:17:11.448Z,7.18
2023-11-24T15:19:44.430Z,7.25
2023-11-24T15:22:20.423Z,7.11
2023-11-24T15:24:54.631Z,7.17
2023-11-24T15:27:25.526Z,7.19
2023-11-24T15:29:55.769Z,7.21
2023-11-24T15:32:25.757Z,7.15
2023-11-24T15:34:58.438Z,7.15
2023-11-24T15:37:28.615Z,7.15
2023-11-24T15:40:00.438Z,7.09
2023-11-24T15:42:33.070Z,6.93
2023-11-24T15:45:03.563Z,6.85
2023-11-24T15:47:35.817Z,6.60
2023-11-24T15:50:12.776Z,6.40
2023-11-24T15:52:45.361Z,6.33
2023-11-24T15:55:17.621Z,6.29
2023-11-24T15:57:47.853Z,6.32
2023-11-24T16:00:29.395Z,6.33
2023-11-24T16:02:59.332Z,6.34
2023-11-24T16:05:33.965Z,6.30
2023-11-24T16:08:05.688Z,6.31
2023-11-24T16:10:45.828Z,6.35
2023-11-24T16:13:20.671Z,6.42
2023-11-24T16:15:50.902Z,6.42
2023-11-24T16:18:32.257Z,6.31
2023-11-24T16:21:08.685Z,6.30
2023-11-24T16:23:38.672Z,6.29
2023-11-24T16:26:11.540Z,6.24
2023-11-24T16:28:43.013Z,6.26
2023-11-24T16:31:13.827Z,6.20
2023-11-24T16:33:43.758Z,6.23
2023-11-24T16:36:21.042Z,6.23
2023-11-24T16:38:50.956Z,6.19
2023-11-24T16:41:21.011Z,6.19
2023-11-24T16:43:50.829Z,6.09
2023-11-24T16:46:22.609Z,6.04
2023-11-24T16:48:52.558Z,6.03
2023-11-24T16:51:25.177Z,6.01
2023-11-24T16:53:56.051Z,6.04
2023-11-24T16:56:25.993Z,6.14
2023-11-24T16:58:58.042Z,6.19
2023-11-24T17:01:27.974Z,6.15
2023-11-24T17:03:59.454Z,6.14
2023-11-24T17:06:32.090Z,6.14
2023-11-24T17:09:04.928Z,6.16
2023-11-24T17:11:35.031Z,6.10
2023-11-24T17:14:05.769Z,6.07
2023-11-24T17:16:37.220Z,6.00
2023-11-24T17:19:07.371Z,5.99
2023-11-24T17:21:42.680Z,5.97
2023-11-24T17:24:12.734Z,5.97
2023-11-24T17:26:43.551Z,5.95
2023-11-24T17:29:15.209Z,5.97
2023-11-24T17:31:46.056Z,5.97
2023-11-24T17:34:16.150Z,5.97
2023-11-24T17:36:49.271Z,5.95
2023-11-24T17:39:19.830Z,5.99
2023-11-24T17:41:49.807Z,6.02
2023-11-24T17:44:19.799Z,6.06
2023-11-24T17:46:50.247Z,6.03
2023-11-24T17:49:20.323Z,6.04
2023-11-24T17:51:52.937Z,6.03
2023-11-24T17:54:23.675Z,6.04
2023-11-24T17:56:55.005Z,6.03
2023-11-24T17:59:24.893Z,5.92
2023-11-24T18:01:54.912Z,5.95
2023-11-24T18:04:24.981Z,5.93
2023-11-24T18:06:57.556Z,5.90
2023-11-24T18:09:27.558Z,5.89
2023-11-24T18:11:57.938Z,5.90
2023-11-24T18:14:28.606Z,5.88
2023-11-24T18:16:58.459Z,5.82
2023-11-24T18:19:28.465Z,5.88
2023-11-24T18:22:01.004Z,5.92
2023-11-24T18:24:31.022Z,5.94
2023-11-24T18:27:00.873Z,5.97
2023-11-24T18:29:30.986Z,5.98
2023-11-24T18:32:00.936Z,6.01
2023-11-24T18:34:31.071Z,5.98
2023-11-24T18:37:06.802Z,6.00
2023-11-24T18:39:36.808Z,6.01
2023-11-24T18:42:07.128Z,5.93
2023-11-24T18:44:37.419Z,5.95
2023-11-24T18:47:07.563Z,5.93
2023-11-24T18:49:37.517Z,5.96
2023-11-24T18:52:10.223Z,5.89
2023-11-24T18:54:43.567Z,5.89
2023-11-24T18:57:14.487Z,5.91
2023-11-24T18:59:44.397Z,5.92
2023-11-24T19:02:16.516Z,5.92
2023-11-24T19:04:46.672Z,5.91
2023-11-24T19:07:20.959Z,5.93
2023-11-24T19:09:52.770Z,5.95
2023-11-24T19:12:22.728Z,6.03
2023-11-24T19:14:52.714Z,6.04
2023-11-24T19:17:22.682Z,6.03
2023-11-24T19:19:52.590Z,6.00
2023-11-24T19:22:25.302Z,5.96
2023-11-24T19:24:55.212Z,5.91
2023-11-24T19:27:25.489Z,5.83
2023-11-24T19:29:55.445Z,5.78
2023-11-24T19:32:26.464Z,5.70
2023-11-24T19:34:56.901Z,5.68
2023-11-24T19:37:29.671Z,5.64
2023-11-24T19:40:01.062Z,5.63
2023-11-24T19:42:31.063Z,5.54
2023-11-24T19:45:02.212Z,5.55
2023-11-24T19:47:32.199Z,5.52
2023-11-24T19:50:02.177Z,5.52
2023-11-24T19:52:36.032Z,5.50
2023-11-24T19:55:06.293Z,5.56
2023-11-24T19:57:36.334Z,5.57
2023-11-24T20:00:10.092Z,5.51
2023-11-24T20:02:40.243Z,5.56
2023-11-24T20:05:11.568Z,5.57
2023-11-24T20:07:44.258Z,5.57
2023-11-24T20:10:14.225Z,5.58
2023-11-24T20:12:45.532Z,5.56
2023-11-24T20:15:15.754Z,5.54
2023-11-24T20:17:46.525Z,5.51
2023-11-24T20:20:17.674Z,5.49
2023-11-24T20:22:50.225Z,5.47
2023-11-24T20:25:20.440Z,5.51
2023-11-24T20:27:50.473Z,5.54
2023-11-24T20:30:22.164Z,5.53
2023-11-24T20:32:56.087Z,5.50
2023-11-24T20:35:26.164Z,5.47
2023-11-24T20:37:58.649Z,5.48
2023-11-24T20:40:28.989Z,5.52
2023-11-24T20:42:59.019Z,5.49
2023-11-24T20:45:29.200Z,5.48
2023-11-24T20:47:59.742Z,5.53
2023-11-24T20:50:29.839Z,5.56
2023-11-24T20:53:02.462Z,5.55
2023-11-24T20:58:03.217Z,5.49
2023-11-24T21:00:34.646Z,5.51
2023-11-24T21:03:04.782Z,5.47
2023-11-24T21:05:35.742Z,5.49
2023-11-24T21:08:09.077Z,5.48
2023-11-24T21:10:39.751Z,5.47
2023-11-24T21:13:10.496Z,5.48
2023-11-24T21:15:42.554Z,5.51
2023-11-24T21:18:13.404Z,5.55
2023-11-24T21:20:44.595Z,5.53
2023-11-24T21:23:17.570Z,5.52
2023-11-24T21:25:47.874Z,5.51
2023-11-24T21:28:20.325Z,5.48
2023-11-24T21:30:51.496Z,5.51
2023-11-24T21:33:21.556Z,5.48
2023-11-24T21:35:51.872Z,5.48
2023-11-24T21:38:26.750Z,5.38
2023-11-24T21:40:56.597Z,5.39
2023-11-24T21:43:26.611Z,5.27
2023-11-24T21:45:56.599Z,5.05
2023-11-24T21:48:28.768Z,5.01
2023-11-24T21:50:58.748Z,4.79
2023-11-24T21:53:31.341Z,4.75
2023-11-24T21:56:01.337Z,4.61
2023-11-24T21:58:31.988Z,4.63
2023-11-24T22:01:02.759Z,4.63
2023-11-24T22:03:33.706Z,4.59
2023-11-24T22:06:04.919Z,4.59
2023-11-24T22:08:37.454Z,4.64
2023-11-24T22:11:07.942Z,4.67
2023-11-24T22:13:38.065Z,4.76
2023-11-24T22:16:09.385Z,4.83
2023-11-24T22:18:39.361Z,4.89
2023-11-24T22:21:09.751Z,4.92
2023-11-24T22:23:44.997Z,4.92
2023-11-24T22:26:21.155Z,4.96
2023-11-24T22:28:53.691Z,4.94
2023-11-24T22:31:24.700Z,4.96
2023-11-24T22:33:54.624Z,4.98
2023-11-24T22:36:25.284Z,4.97
2023-11-24T22:38:58.233Z,4.99
2023-11-24T22:41:28.866Z,4.98
2023-11-24T22:43:58.770Z,5.01
2023-11-24T22:46:30.062Z,5.02
2023-11-24T22:49:00.139Z,5.03
2023-11-24T22:51:30.787Z,5.03
2023-11-24T22:54:03.595Z,5.02
2023-11-24T22:56:33.537Z,5.01
2023-11-24T22:59:03.494Z,5.03
2023-11-24T23:01:34.815Z,5.05
2023-11-24T23:04:06.597Z,5.11
2023-11-24T23:06:37.160Z,5.14
2023-11-24T23:09:10.833Z,5.16
2023-11-24T23:11:41.895Z,5.18
2023-11-24T23:14:11.961Z,5.22
2023-11-24T23:16:41.849Z,5.24
2023-11-24T23:19:13.289Z,5.24
2023-11-24T23:21:43.713Z,5.24
2023-11-24T23:24:16.818Z,5.27
2023-11-24T23:26:46.684Z,5.27
2023-11-24T23:29:16.873Z,5.27
2023-11-24T23:31:48.002Z,5.21
2023-11-24T23:34:18.030Z,5.21
2023-11-24T23:36:48.370Z,5.23
2023-11-24T23:39:20.830Z,5.21
2023-11-24T23:41:50.725Z,5.18
2023-11-24T23:44:20.561Z,5.18
2023-11-24T23:46:50.596Z,5.18
2023-11-24T23:49:20.497Z,5.19
2023-11-24T23:51:50.378Z,5.18
2023-11-24T23:54:22.893Z,5.18
2023-11-24T23:56:52.717Z,5.19
2023-11-24T23:59:22.584Z,5.22
